sensor_id;sensor_type;location;lat;lon;timestamp;P1;durP1;ratioP1;P2;durP2;ratioP2
16510;SDS011;8368;48.772;8.754;2022-10-16T00:00:36;3.08;;;2.88;;
16510;SDS011;8368;48.772;8.754;2022-10-16T00:03:03;3.57;;;3.13;;
16510;SDS011;8368;48.772;8.754;2022-10-16T00:05:29;4.00;;;2.97;;
16510;SDS011;8368;48.772;8.754;2022-10-16T00:07:55;3.80;;;3.00;;
16510;SDS011;8368;48.772;8.754;2022-10-16T00:10:21;3.10;;;2.90;;
16510;SDS011;8368;48.772;8.754;2022-10-16T00:12:47;2.67;;;2.40;;
16510;SDS011;8368;48.772;8.754;2022-10-16T00:15:13;2.37;;;2.20;;
16510;SDS011;8368;48.772;8.754;2022-10-16T00:17:39;1.80;;;1.80;;
16510;SDS011;8368;48.772;8.754;2022-10-16T00:20:04;2.20;;;2.10;;
16510;SDS011;8368;48.772;8.754;2022-10-16T00:22:30;2.63;;;2.27;;
16510;SDS011;8368;48.772;8.754;2022-10-16T00:24:56;2.10;;;2.00;;
16510;SDS011;8368;48.772;8.754;2022-10-16T00:27:21;2.60;;;2.40;;
16510;SDS011;8368;48.772;8.754;2022-10-16T00:29:51;2.57;;;2.37;;
16510;SDS011;8368;48.772;8.754;2022-10-16T00:32:17;2.25;;;2.10;;
16510;SDS011;8368;48.772;8.754;2022-10-16T00:34:44;2.23;;;2.03;;
16510;SDS011;8368;48.772;8.754;2022-10-16T00:37:10;2.80;;;1.73;;
16510;SDS011;8368;48.772;8.754;2022-10-16T00:39:36;3.20;;;2.03;;
16510;SDS011;8368;48.772;8.754;2022-10-16T00:42:02;2.38;;;2.17;;
16510;SDS011;8368;48.772;8.754;2022-10-16T00:47:37;1.90;;;1.80;;
16510;SDS011;8368;48.772;8.754;2022-10-16T00:50:52;2.28;;;2.13;;
16510;SDS011;8368;48.772;8.754;2022-10-16T00:53:00;2.60;;;2.40;;
16510;SDS011;8368;48.772;8.754;2022-10-16T00:55:26;2.63;;;2.53;;
16510;SDS011;8368;48.772;8.754;2022-10-16T00:57:55;2.55;;;2.38;;
16510;SDS011;8368;48.772;8.754;2022-10-16T01:00:22;2.55;;;2.42;;
16510;SDS011;8368;48.772;8.754;2022-10-16T01:05:20;2.50;;;2.40;;
16510;SDS011;8368;48.772;8.754;2022-10-16T01:07:56;2.75;;;2.55;;
16510;SDS011;8368;48.772;8.754;2022-10-16T01:10:27;2.90;;;1.88;;
16510;SDS011;8368;48.772;8.754;2022-10-16T01:13:17;1.90;;;1.80;;
16510;SDS011;8368;48.772;8.754;2022-10-16T01:16:04;2.30;;;1.80;;
16510;SDS011;8368;48.772;8.754;2022-10-16T01:18:50;2.03;;;1.90;;
16510;SDS011;8368;48.772;8.754;2022-10-16T01:21:28;2.58;;;2.35;;
16510;SDS011;8368;48.772;8.754;2022-10-16T01:29:26;2.23;;;2.10;;
16510;SDS011;8368;48.772;8.754;2022-10-16T01:31:59;3.40;;;2.05;;
16510;SDS011;8368;48.772;8.754;2022-10-16T01:34:33;2.42;;;2.22;;
16510;SDS011;8368;48.772;8.754;2022-10-16T01:37:11;2.63;;;2.40;;
16510;SDS011;8368;48.772;8.754;2022-10-16T01:39:41;2.30;;;1.85;;
16510;SDS011;8368;48.772;8.754;2022-10-16T01:42:24;2.85;;;1.70;;
16510;SDS011;8368;48.772;8.754;2022-10-16T01:44:54;1.67;;;1.57;;
16510;SDS011;8368;48.772;8.754;2022-10-16T01:47:22;1.80;;;1.70;;
16510;SDS011;8368;48.772;8.754;2022-10-16T01:49:50;3.63;;;2.00;;
16510;SDS011;8368;48.772;8.754;2022-10-16T01:52:19;2.40;;;2.10;;
16510;SDS011;8368;48.772;8.754;2022-10-16T01:54:48;2.40;;;2.03;;
16510;SDS011;8368;48.772;8.754;2022-10-16T01:57:17;4.13;;;2.40;;
16510;SDS011;8368;48.772;8.754;2022-10-16T01:59:47;2.47;;;2.28;;
16510;SDS011;8368;48.772;8.754;2022-10-16T02:02:15;7.20;;;2.42;;
16510;SDS011;8368;48.772;8.754;2022-10-16T02:04:45;4.63;;;2.25;;
16510;SDS011;8368;48.772;8.754;2022-10-16T02:07:13;2.30;;;1.87;;
16510;SDS011;8368;48.772;8.754;2022-10-16T02:09:39;2.10;;;2.00;;
16510;SDS011;8368;48.772;8.754;2022-10-16T02:12:14;2.30;;;1.83;;
16510;SDS011;8368;48.772;8.754;2022-10-16T02:14:55;1.83;;;1.73;;
16510;SDS011;8368;48.772;8.754;2022-10-16T02:17:21;1.80;;;1.80;;
16510;SDS011;8368;48.772;8.754;2022-10-16T02:19:48;3.35;;;1.90;;
16510;SDS011;8368;48.772;8.754;2022-10-16T02:22:19;1.75;;;1.75;;
16510;SDS011;8368;48.772;8.754;2022-10-16T02:25:01;2.03;;;1.67;;
16510;SDS011;8368;48.772;8.754;2022-10-16T02:27:47;1.85;;;1.80;;
16510;SDS011;8368;48.772;8.754;2022-10-16T02:30:21;3.22;;;1.80;;
16510;SDS011;8368;48.772;8.754;2022-10-16T02:32:52;3.13;;;1.80;;
16510;SDS011;8368;48.772;8.754;2022-10-16T02:35:18;2.15;;;2.05;;
16510;SDS011;8368;48.772;8.754;2022-10-16T02:37:47;6.23;;;1.90;;
16510;SDS011;8368;48.772;8.754;2022-10-16T02:40:14;2.47;;;2.00;;
16510;SDS011;8368;48.772;8.754;2022-10-16T02:42:41;2.57;;;2.37;;
16510;SDS011;8368;48.772;8.754;2022-10-16T02:45:07;5.37;;;2.90;;
16510;SDS011;8368;48.772;8.754;2022-10-16T02:47:34;3.28;;;2.58;;
16510;SDS011;8368;48.772;8.754;2022-10-16T02:50:00;2.33;;;2.03;;
16510;SDS011;8368;48.772;8.754;2022-10-16T02:52:25;1.98;;;1.83;;
16510;SDS011;8368;48.772;8.754;2022-10-16T02:54:51;6.00;;;2.08;;
16510;SDS011;8368;48.772;8.754;2022-10-16T02:57:17;6.00;;;2.03;;
16510;SDS011;8368;48.772;8.754;2022-10-16T02:59:43;2.03;;;1.92;;
16510;SDS011;8368;48.772;8.754;2022-10-16T03:02:09;2.95;;;1.85;;
16510;SDS011;8368;48.772;8.754;2022-10-16T03:04:35;3.00;;;2.10;;
16510;SDS011;8368;48.772;8.754;2022-10-16T03:07:00;2.50;;;2.40;;
16510;SDS011;8368;48.772;8.754;2022-10-16T03:09:26;2.50;;;2.30;;
16510;SDS011;8368;48.772;8.754;2022-10-16T03:11:52;5.30;;;3.00;;
16510;SDS011;8368;48.772;8.754;2022-10-16T03:14:17;3.58;;;2.60;;
16510;SDS011;8368;48.772;8.754;2022-10-16T03:16:43;3.35;;;2.80;;
16510;SDS011;8368;48.772;8.754;2022-10-16T03:19:08;3.33;;;3.03;;
16510;SDS011;8368;48.772;8.754;2022-10-16T03:21:34;3.97;;;2.80;;
16510;SDS011;8368;48.772;8.754;2022-10-16T03:23:59;2.43;;;2.20;;
16510;SDS011;8368;48.772;8.754;2022-10-16T03:26:25;3.00;;;2.80;;
16510;SDS011;8368;48.772;8.754;2022-10-16T03:28:51;4.30;;;3.03;;
16510;SDS011;8368;48.772;8.754;2022-10-16T03:31:16;5.63;;;3.90;;
16510;SDS011;8368;48.772;8.754;2022-10-16T03:33:42;4.33;;;3.93;;
16510;SDS011;8368;48.772;8.754;2022-10-16T03:36:07;5.70;;;3.50;;
16510;SDS011;8368;48.772;8.754;2022-10-16T03:38:33;7.30;;;3.08;;
16510;SDS011;8368;48.772;8.754;2022-10-16T03:40:58;3.57;;;3.23;;
16510;SDS011;8368;48.772;8.754;2022-10-16T03:43:24;3.70;;;3.40;;
16510;SDS011;8368;48.772;8.754;2022-10-16T03:45:50;4.20;;;3.20;;
16510;SDS011;8368;48.772;8.754;2022-10-16T03:48:16;12.07;;;3.50;;
16510;SDS011;8368;48.772;8.754;2022-10-16T03:50:42;5.27;;;3.60;;
16510;SDS011;8368;48.772;8.754;2022-10-16T03:53:08;5.45;;;2.88;;
16510;SDS011;8368;48.772;8.754;2022-10-16T03:55:34;5.57;;;3.47;;
16510;SDS011;8368;48.772;8.754;2022-10-16T03:58:00;3.40;;;3.10;;
16510;SDS011;8368;48.772;8.754;2022-10-16T04:00:26;3.83;;;2.97;;
16510;SDS011;8368;48.772;8.754;2022-10-16T04:02:52;2.50;;;2.30;;
16510;SDS011;8368;48.772;8.754;2022-10-16T04:05:17;2.70;;;2.20;;
16510;SDS011;8368;48.772;8.754;2022-10-16T04:07:43;3.77;;;2.30;;
16510;SDS011;8368;48.772;8.754;2022-10-16T04:10:09;2.30;;;2.10;;
16510;SDS011;8368;48.772;8.754;2022-10-16T04:12:35;2.87;;;2.50;;
16510;SDS011;8368;48.772;8.754;2022-10-16T04:15:00;3.83;;;2.23;;
16510;SDS011;8368;48.772;8.754;2022-10-16T04:17:26;2.33;;;1.93;;
16510;SDS011;8368;48.772;8.754;2022-10-16T04:19:51;2.17;;;1.87;;
16510;SDS011;8368;48.772;8.754;2022-10-16T04:22:17;1.97;;;1.87;;
16510;SDS011;8368;48.772;8.754;2022-10-16T04:24:42;4.50;;;2.37;;
16510;SDS011;8368;48.772;8.754;2022-10-16T04:27:08;5.43;;;2.80;;
16510;SDS011;8368;48.772;8.754;2022-10-16T04:29:33;4.57;;;2.90;;
16510;SDS011;8368;48.772;8.754;2022-10-16T04:31:59;2.40;;;2.30;;
16510;SDS011;8368;48.772;8.754;2022-10-16T04:34:24;3.10;;;2.80;;
16510;SDS011;8368;48.772;8.754;2022-10-16T04:36:50;2.20;;;2.10;;
16510;SDS011;8368;48.772;8.754;2022-10-16T04:39:15;2.30;;;2.10;;
16510;SDS011;8368;48.772;8.754;2022-10-16T04:41:41;2.10;;;2.00;;
16510;SDS011;8368;48.772;8.754;2022-10-16T04:44:07;1.80;;;1.80;;
16510;SDS011;8368;48.772;8.754;2022-10-16T04:46:33;2.20;;;1.97;;
16510;SDS011;8368;48.772;8.754;2022-10-16T04:48:59;2.00;;;1.90;;
16510;SDS011;8368;48.772;8.754;2022-10-16T04:51:24;2.53;;;2.20;;
16510;SDS011;8368;48.772;8.754;2022-10-16T04:53:50;2.93;;;2.73;;
16510;SDS011;8368;48.772;8.754;2022-10-16T04:56:16;3.10;;;2.87;;
16510;SDS011;8368;48.772;8.754;2022-10-16T04:58:42;3.20;;;2.50;;
16510;SDS011;8368;48.772;8.754;2022-10-16T05:01:07;2.78;;;2.67;;
16510;SDS011;8368;48.772;8.754;2022-10-16T05:03:33;3.60;;;2.27;;
16510;SDS011;8368;48.772;8.754;2022-10-16T05:05:58;3.55;;;2.83;;
16510;SDS011;8368;48.772;8.754;2022-10-16T05:08:24;2.80;;;2.57;;
16510;SDS011;8368;48.772;8.754;2022-10-16T05:10:50;2.77;;;2.53;;
16510;SDS011;8368;48.772;8.754;2022-10-16T05:13:15;2.90;;;2.38;;
16510;SDS011;8368;48.772;8.754;2022-10-16T05:15:41;2.63;;;2.53;;
16510;SDS011;8368;48.772;8.754;2022-10-16T05:18:07;4.30;;;2.85;;
16510;SDS011;8368;48.772;8.754;2022-10-16T05:20:33;3.17;;;2.87;;
16510;SDS011;8368;48.772;8.754;2022-10-16T05:22:59;3.33;;;3.03;;
16510;SDS011;8368;48.772;8.754;2022-10-16T05:25:25;4.90;;;3.30;;
16510;SDS011;8368;48.772;8.754;2022-10-16T05:27:50;3.80;;;3.50;;
16510;SDS011;8368;48.772;8.754;2022-10-16T05:30:16;3.60;;;3.30;;
16510;SDS011;8368;48.772;8.754;2022-10-16T05:32:46;3.33;;;3.13;;
16510;SDS011;8368;48.772;8.754;2022-10-16T05:35:15;4.43;;;3.27;;
16510;SDS011;8368;48.772;8.754;2022-10-16T05:37:42;3.60;;;3.00;;
16510;SDS011;8368;48.772;8.754;2022-10-16T05:40:08;3.17;;;2.57;;
16510;SDS011;8368;48.772;8.754;2022-10-16T05:42:34;3.07;;;2.80;;
16510;SDS011;8368;48.772;8.754;2022-10-16T05:45:00;3.57;;;3.27;;
16510;SDS011;8368;48.772;8.754;2022-10-16T05:47:26;3.23;;;3.07;;
16510;SDS011;8368;48.772;8.754;2022-10-16T05:49:52;3.50;;;2.90;;
16510;SDS011;8368;48.772;8.754;2022-10-16T05:52:18;2.77;;;2.67;;
16510;SDS011;8368;48.772;8.754;2022-10-16T05:54:43;3.90;;;3.20;;
16510;SDS011;8368;48.772;8.754;2022-10-16T05:57:09;4.50;;;3.30;;
16510;SDS011;8368;48.772;8.754;2022-10-16T05:59:35;2.70;;;2.50;;
16510;SDS011;8368;48.772;8.754;2022-10-16T06:02:00;4.53;;;3.50;;
16510;SDS011;8368;48.772;8.754;2022-10-16T06:04:26;5.67;;;3.83;;
16510;SDS011;8368;48.772;8.754;2022-10-16T06:06:51;6.37;;;3.50;;
16510;SDS011;8368;48.772;8.754;2022-10-16T06:09:17;3.53;;;3.30;;
16510;SDS011;8368;48.772;8.754;2022-10-16T06:11:42;3.83;;;2.90;;
16510;SDS011;8368;48.772;8.754;2022-10-16T06:14:08;3.40;;;3.20;;
16510;SDS011;8368;48.772;8.754;2022-10-16T06:16:34;7.07;;;4.20;;
16510;SDS011;8368;48.772;8.754;2022-10-16T06:19:01;4.03;;;3.77;;
16510;SDS011;8368;48.772;8.754;2022-10-16T06:21:29;5.07;;;3.73;;
16510;SDS011;8368;48.772;8.754;2022-10-16T06:23:55;6.50;;;3.50;;
16510;SDS011;8368;48.772;8.754;2022-10-16T06:26:22;4.57;;;3.50;;
16510;SDS011;8368;48.772;8.754;2022-10-16T06:28:49;3.67;;;3.00;;
16510;SDS011;8368;48.772;8.754;2022-10-16T06:31:15;2.47;;;2.27;;
16510;SDS011;8368;48.772;8.754;2022-10-16T06:33:42;2.33;;;2.13;;
16510;SDS011;8368;48.772;8.754;2022-10-16T06:36:12;4.30;;;2.20;;
16510;SDS011;8368;48.772;8.754;2022-10-16T06:38:39;4.38;;;2.33;;
16510;SDS011;8368;48.772;8.754;2022-10-16T06:41:06;2.40;;;2.20;;
16510;SDS011;8368;48.772;8.754;2022-10-16T06:43:33;2.63;;;2.10;;
16510;SDS011;8368;48.772;8.754;2022-10-16T06:46:02;4.67;;;2.30;;
16510;SDS011;8368;48.772;8.754;2022-10-16T06:48:28;2.30;;;2.20;;
16510;SDS011;8368;48.772;8.754;2022-10-16T06:50:58;2.93;;;2.27;;
16510;SDS011;8368;48.772;8.754;2022-10-16T06:53:25;3.15;;;2.22;;
16510;SDS011;8368;48.772;8.754;2022-10-16T06:55:52;2.53;;;2.42;;
16510;SDS011;8368;48.772;8.754;2022-10-16T06:58:18;2.30;;;2.15;;
16510;SDS011;8368;48.772;8.754;2022-10-16T07:00:43;3.10;;;2.90;;
16510;SDS011;8368;48.772;8.754;2022-10-16T07:03:09;3.35;;;2.25;;
16510;SDS011;8368;48.772;8.754;2022-10-16T07:05:38;2.30;;;2.20;;
16510;SDS011;8368;48.772;8.754;2022-10-16T07:08:07;2.90;;;2.10;;
16510;SDS011;8368;48.772;8.754;2022-10-16T07:10:34;2.40;;;2.30;;
16510;SDS011;8368;48.772;8.754;2022-10-16T07:12:59;4.03;;;2.60;;
16510;SDS011;8368;48.772;8.754;2022-10-16T07:15:25;2.10;;;2.08;;
16510;SDS011;8368;48.772;8.754;2022-10-16T07:17:51;2.42;;;2.33;;
16510;SDS011;8368;48.772;8.754;2022-10-16T07:20:17;2.63;;;2.50;;
16510;SDS011;8368;48.772;8.754;2022-10-16T07:22:44;3.00;;;2.78;;
16510;SDS011;8368;48.772;8.754;2022-10-16T07:25:09;5.23;;;3.50;;
16510;SDS011;8368;48.772;8.754;2022-10-16T07:27:36;3.13;;;2.22;;
16510;SDS011;8368;48.772;8.754;2022-10-16T07:30:03;3.22;;;2.63;;
16510;SDS011;8368;48.772;8.754;2022-10-16T07:32:29;2.75;;;2.55;;
16510;SDS011;8368;48.772;8.754;2022-10-16T07:34:55;2.55;;;2.35;;
16510;SDS011;8368;48.772;8.754;2022-10-16T07:37:21;4.28;;;2.55;;
16510;SDS011;8368;48.772;8.754;2022-10-16T07:39:47;2.20;;;2.10;;
16510;SDS011;8368;48.772;8.754;2022-10-16T07:42:12;1.90;;;1.80;;
16510;SDS011;8368;48.772;8.754;2022-10-16T07:44:38;2.05;;;1.85;;
16510;SDS011;8368;48.772;8.754;2022-10-16T07:47:04;5.80;;;2.00;;
16510;SDS011;8368;48.772;8.754;2022-10-16T07:49:30;3.58;;;1.92;;
16510;SDS011;8368;48.772;8.754;2022-10-16T07:51:56;2.03;;;1.88;;
16510;SDS011;8368;48.772;8.754;2022-10-16T07:54:21;2.38;;;2.33;;
16510;SDS011;8368;48.772;8.754;2022-10-16T07:56:47;1.77;;;1.67;;
16510;SDS011;8368;48.772;8.754;2022-10-16T07:59:12;1.83;;;1.70;;
16510;SDS011;8368;48.772;8.754;2022-10-16T08:01:38;2.08;;;1.88;;
16510;SDS011;8368;48.772;8.754;2022-10-16T08:04:04;1.67;;;1.58;;
16510;SDS011;8368;48.772;8.754;2022-10-16T08:06:30;3.15;;;1.95;;
16510;SDS011;8368;48.772;8.754;2022-10-16T08:09:01;3.55;;;2.00;;
16510;SDS011;8368;48.772;8.754;2022-10-16T08:11:27;2.88;;;1.80;;
16510;SDS011;8368;48.772;8.754;2022-10-16T08:13:52;3.90;;;1.58;;
16510;SDS011;8368;48.772;8.754;2022-10-16T08:16:18;3.78;;;1.73;;
16510;SDS011;8368;48.772;8.754;2022-10-16T08:18:43;1.80;;;1.70;;
16510;SDS011;8368;48.772;8.754;2022-10-16T08:21:16;2.13;;;1.63;;
16510;SDS011;8368;48.772;8.754;2022-10-16T08:23:43;2.08;;;1.70;;
16510;SDS011;8368;48.772;8.754;2022-10-16T08:26:09;3.40;;;1.40;;
16510;SDS011;8368;48.772;8.754;2022-10-16T08:28:36;3.05;;;1.60;;
16510;SDS011;8368;48.772;8.754;2022-10-16T08:31:09;1.63;;;1.50;;
16510;SDS011;8368;48.772;8.754;2022-10-16T08:33:35;1.90;;;1.80;;
16510;SDS011;8368;48.772;8.754;2022-10-16T08:36:01;1.98;;;1.80;;
16510;SDS011;8368;48.772;8.754;2022-10-16T08:38:27;1.65;;;1.55;;
16510;SDS011;8368;48.772;8.754;2022-10-16T08:40:54;1.63;;;1.60;;
16510;SDS011;8368;48.772;8.754;2022-10-16T08:46:35;2.10;;;2.00;;
16510;SDS011;8368;48.772;8.754;2022-10-16T08:49:26;2.72;;;1.60;;
16510;SDS011;8368;48.772;8.754;2022-10-16T08:51:52;1.98;;;1.88;;
16510;SDS011;8368;48.772;8.754;2022-10-16T08:54:26;3.90;;;1.73;;
16510;SDS011;8368;48.772;8.754;2022-10-16T08:57:12;1.75;;;1.65;;
16510;SDS011;8368;48.772;8.754;2022-10-16T08:59:42;3.78;;;2.30;;
16510;SDS011;8368;48.772;8.754;2022-10-16T09:07:36;3.40;;;1.83;;
16510;SDS011;8368;48.772;8.754;2022-10-16T09:12:56;2.45;;;1.73;;
16510;SDS011;8368;48.772;8.754;2022-10-16T09:18:12;2.45;;;1.85;;
16510;SDS011;8368;48.772;8.754;2022-10-16T09:23:37;1.70;;;1.70;;
16510;SDS011;8368;48.772;8.754;2022-10-16T09:26:02;2.38;;;2.17;;
16510;SDS011;8368;48.772;8.754;2022-10-16T09:28:30;2.17;;;1.98;;
16510;SDS011;8368;48.772;8.754;2022-10-16T09:30:56;4.20;;;1.77;;
16510;SDS011;8368;48.772;8.754;2022-10-16T09:33:23;1.83;;;1.73;;
16510;SDS011;8368;48.772;8.754;2022-10-16T09:35:54;1.83;;;1.70;;
16510;SDS011;8368;48.772;8.754;2022-10-16T09:38:27;2.38;;;1.83;;
16510;SDS011;8368;48.772;8.754;2022-10-16T09:40:55;3.00;;;1.90;;
16510;SDS011;8368;48.772;8.754;2022-10-16T09:43:23;2.67;;;1.80;;
16510;SDS011;8368;48.772;8.754;2022-10-16T09:46:00;2.05;;;1.50;;
16510;SDS011;8368;48.772;8.754;2022-10-16T09:48:30;1.67;;;1.58;;
16510;SDS011;8368;48.772;8.754;2022-10-16T09:51:02;7.18;;;6.47;;
16510;SDS011;8368;48.772;8.754;2022-10-16T09:53:40;2.95;;;2.78;;
16510;SDS011;8368;48.772;8.754;2022-10-16T09:56:11;2.00;;;1.83;;
16510;SDS011;8368;48.772;8.754;2022-10-16T09:58:50;1.88;;;1.63;;
16510;SDS011;8368;48.772;8.754;2022-10-16T10:01:17;1.35;;;1.35;;
16510;SDS011;8368;48.772;8.754;2022-10-16T10:03:43;3.50;;;1.52;;
16510;SDS011;8368;48.772;8.754;2022-10-16T10:06:23;2.95;;;1.33;;
16510;SDS011;8368;48.772;8.754;2022-10-16T10:19:36;4.35;;;1.70;;
16510;SDS011;8368;48.772;8.754;2022-10-16T10:22:25;3.28;;;1.55;;
16510;SDS011;8368;48.772;8.754;2022-10-16T10:24:56;2.03;;;1.40;;
16510;SDS011;8368;48.772;8.754;2022-10-16T10:27:39;2.67;;;1.58;;
16510;SDS011;8368;48.772;8.754;2022-10-16T10:36:04;1.30;;;1.30;;
16510;SDS011;8368;48.772;8.754;2022-10-16T10:38:51;2.38;;;1.35;;
16510;SDS011;8368;48.772;8.754;2022-10-16T10:41:38;1.60;;;1.60;;
16510;SDS011;8368;48.772;8.754;2022-10-16T10:46:57;1.95;;;1.50;;
16510;SDS011;8368;48.772;8.754;2022-10-16T10:49:44;1.75;;;1.52;;
16510;SDS011;8368;48.772;8.754;2022-10-16T11:06:21;2.85;;;1.60;;
16510;SDS011;8368;48.772;8.754;2022-10-16T11:11:53;1.75;;;1.70;;
16510;SDS011;8368;48.772;8.754;2022-10-16T11:14:26;5.25;;;1.60;;
16510;SDS011;8368;48.772;8.754;2022-10-16T11:17:02;7.80;;;2.17;;
16510;SDS011;8368;48.772;8.754;2022-10-16T11:20:20;3.13;;;1.83;;
16510;SDS011;8368;48.772;8.754;2022-10-16T11:22:56;1.77;;;1.60;;
16510;SDS011;8368;48.772;8.754;2022-10-16T11:25:28;2.28;;;1.55;;
16510;SDS011;8368;48.772;8.754;2022-10-16T11:30:49;1.65;;;1.55;;
16510;SDS011;8368;48.772;8.754;2022-10-16T11:33:44;1.83;;;1.73;;
16510;SDS011;8368;48.772;8.754;2022-10-16T11:46:26;2.00;;;1.40;;
16510;SDS011;8368;48.772;8.754;2022-10-16T11:51:42;4.68;;;1.48;;
16510;SDS011;8368;48.772;8.754;2022-10-16T11:54:22;1.40;;;1.27;;
16510;SDS011;8368;48.772;8.754;2022-10-16T11:57:03;5.07;;;1.50;;
16510;SDS011;8368;48.772;8.754;2022-10-16T11:59:42;2.88;;;1.60;;
16510;SDS011;8368;48.772;8.754;2022-10-16T12:08:15;1.58;;;1.30;;
16510;SDS011;8368;48.772;8.754;2022-10-16T12:10:43;2.00;;;1.40;;
16510;SDS011;8368;48.772;8.754;2022-10-16T12:18:37;1.50;;;1.50;;
16510;SDS011;8368;48.772;8.754;2022-10-16T12:21:14;1.35;;;1.35;;
16510;SDS011;8368;48.772;8.754;2022-10-16T12:23:54;2.25;;;1.50;;
16510;SDS011;8368;48.772;8.754;2022-10-16T12:26:28;1.95;;;1.15;;
16510;SDS011;8368;48.772;8.754;2022-10-16T12:28:56;3.25;;;1.60;;
16510;SDS011;8368;48.772;8.754;2022-10-16T12:31:37;2.05;;;1.50;;
16510;SDS011;8368;48.772;8.754;2022-10-16T12:35:00;1.67;;;1.40;;
16510;SDS011;8368;48.772;8.754;2022-10-16T12:37:25;3.63;;;1.50;;
16510;SDS011;8368;48.772;8.754;2022-10-16T12:39:59;2.28;;;1.40;;
16510;SDS011;8368;48.772;8.754;2022-10-16T12:42:41;2.45;;;1.70;;
16510;SDS011;8368;48.772;8.754;2022-10-16T12:48:02;1.75;;;1.48;;
16510;SDS011;8368;48.772;8.754;2022-10-16T12:53:00;7.22;;;2.38;;
16510;SDS011;8368;48.772;8.754;2022-10-16T12:55:30;2.15;;;1.45;;
16510;SDS011;8368;48.772;8.754;2022-10-16T12:58:13;2.75;;;1.55;;
16510;SDS011;8368;48.772;8.754;2022-10-16T13:01:02;2.55;;;1.80;;
16510;SDS011;8368;48.772;8.754;2022-10-16T13:09:00;5.78;;;1.75;;
16510;SDS011;8368;48.772;8.754;2022-10-16T13:11:46;1.65;;;1.60;;
16510;SDS011;8368;48.772;8.754;2022-10-16T13:28:17;1.95;;;1.60;;
16510;SDS011;8368;48.772;8.754;2022-10-16T13:30:51;1.83;;;1.48;;
16510;SDS011;8368;48.772;8.754;2022-10-16T13:33:30;2.33;;;1.67;;
16510;SDS011;8368;48.772;8.754;2022-10-16T13:35:59;4.20;;;1.50;;
16510;SDS011;8368;48.772;8.754;2022-10-16T13:38:27;1.83;;;1.60;;
16510;SDS011;8368;48.772;8.754;2022-10-16T13:41:14;1.50;;;1.40;;
16510;SDS011;8368;48.772;8.754;2022-10-16T13:43:43;5.68;;;2.28;;
16510;SDS011;8368;48.772;8.754;2022-10-16T13:46:13;6.55;;;2.30;;
16510;SDS011;8368;48.772;8.754;2022-10-16T13:48:39;2.50;;;1.63;;
16510;SDS011;8368;48.772;8.754;2022-10-16T13:51:15;2.92;;;1.98;;
16510;SDS011;8368;48.772;8.754;2022-10-16T13:53:43;2.90;;;1.23;;
16510;SDS011;8368;48.772;8.754;2022-10-16T13:56:14;3.92;;;1.65;;
16510;SDS011;8368;48.772;8.754;2022-10-16T13:58:41;3.47;;;1.40;;
16510;SDS011;8368;48.772;8.754;2022-10-16T14:01:20;2.05;;;1.63;;
16510;SDS011;8368;48.772;8.754;2022-10-16T14:03:50;3.95;;;2.00;;
16510;SDS011;8368;48.772;8.754;2022-10-16T14:06:20;2.92;;;1.63;;
16510;SDS011;8368;48.772;8.754;2022-10-16T14:11:33;1.80;;;1.70;;
16510;SDS011;8368;48.772;8.754;2022-10-16T14:14:10;3.15;;;1.55;;
16510;SDS011;8368;48.772;8.754;2022-10-16T14:16:37;1.70;;;1.70;;
16510;SDS011;8368;48.772;8.754;2022-10-16T14:19:13;3.15;;;1.80;;
16510;SDS011;8368;48.772;8.754;2022-10-16T14:21:43;2.35;;;1.80;;
16510;SDS011;8368;48.772;8.754;2022-10-16T14:24:13;1.88;;;1.75;;
16510;SDS011;8368;48.772;8.754;2022-10-16T14:26:49;3.67;;;1.50;;
16510;SDS011;8368;48.772;8.754;2022-10-16T14:29:19;1.70;;;1.60;;
16510;SDS011;8368;48.772;8.754;2022-10-16T14:32:01;1.98;;;1.80;;
16510;SDS011;8368;48.772;8.754;2022-10-16T14:34:35;5.20;;;1.73;;
16510;SDS011;8368;48.772;8.754;2022-10-16T14:39:51;2.00;;;1.90;;
16510;SDS011;8368;48.772;8.754;2022-10-16T14:42:18;2.05;;;1.52;;
16510;SDS011;8368;48.772;8.754;2022-10-16T14:44:48;2.00;;;1.80;;
16510;SDS011;8368;48.772;8.754;2022-10-16T14:47:18;2.60;;;1.50;;
16510;SDS011;8368;48.772;8.754;2022-10-16T14:49:47;3.85;;;1.90;;
16510;SDS011;8368;48.772;8.754;2022-10-16T14:52:13;4.13;;;1.58;;
16510;SDS011;8368;48.772;8.754;2022-10-16T14:54:39;4.72;;;1.67;;
16510;SDS011;8368;48.772;8.754;2022-10-16T14:57:05;2.53;;;1.83;;
16510;SDS011;8368;48.772;8.754;2022-10-16T14:59:40;4.63;;;2.10;;
16510;SDS011;8368;48.772;8.754;2022-10-16T15:02:28;3.70;;;1.92;;
16510;SDS011;8368;48.772;8.754;2022-10-16T15:04:55;1.90;;;1.80;;
16510;SDS011;8368;48.772;8.754;2022-10-16T15:07:22;2.58;;;1.85;;
16510;SDS011;8368;48.772;8.754;2022-10-16T15:09:47;2.75;;;1.73;;
16510;SDS011;8368;48.772;8.754;2022-10-16T15:12:13;3.33;;;1.70;;
16510;SDS011;8368;48.772;8.754;2022-10-16T15:14:39;2.45;;;1.88;;
16510;SDS011;8368;48.772;8.754;2022-10-16T15:17:05;2.13;;;1.98;;
16510;SDS011;8368;48.772;8.754;2022-10-16T15:19:30;2.00;;;1.80;;
16510;SDS011;8368;48.772;8.754;2022-10-16T15:21:56;3.72;;;2.17;;
16510;SDS011;8368;48.772;8.754;2022-10-16T15:24:22;2.10;;;1.88;;
16510;SDS011;8368;48.772;8.754;2022-10-16T15:26:47;6.38;;;2.13;;
16510;SDS011;8368;48.772;8.754;2022-10-16T15:29:14;1.95;;;1.85;;
16510;SDS011;8368;48.772;8.754;2022-10-16T15:31:40;2.78;;;1.98;;
16510;SDS011;8368;48.772;8.754;2022-10-16T15:34:10;3.47;;;2.40;;
16510;SDS011;8368;48.772;8.754;2022-10-16T15:36:37;2.13;;;1.90;;
16510;SDS011;8368;48.772;8.754;2022-10-16T15:39:21;2.22;;;2.00;;
16510;SDS011;8368;48.772;8.754;2022-10-16T15:41:47;3.20;;;1.90;;
16510;SDS011;8368;48.772;8.754;2022-10-16T15:44:16;1.98;;;1.88;;
16510;SDS011;8368;48.772;8.754;2022-10-16T15:46:42;2.28;;;2.13;;
16510;SDS011;8368;48.772;8.754;2022-10-16T15:49:07;2.75;;;2.55;;
16510;SDS011;8368;48.772;8.754;2022-10-16T15:51:35;2.97;;;2.00;;
16510;SDS011;8368;48.772;8.754;2022-10-16T15:54:03;3.67;;;2.28;;
16510;SDS011;8368;48.772;8.754;2022-10-16T15:56:29;2.22;;;2.03;;
16510;SDS011;8368;48.772;8.754;2022-10-16T15:58:58;2.97;;;2.15;;
16510;SDS011;8368;48.772;8.754;2022-10-16T16:01:24;4.40;;;2.60;;
16510;SDS011;8368;48.772;8.754;2022-10-16T16:03:54;3.78;;;2.60;;
16510;SDS011;8368;48.772;8.754;2022-10-16T16:06:20;3.45;;;2.28;;
16510;SDS011;8368;48.772;8.754;2022-10-16T16:08:47;5.75;;;2.47;;
16510;SDS011;8368;48.772;8.754;2022-10-16T16:11:15;4.70;;;2.35;;
16510;SDS011;8368;48.772;8.754;2022-10-16T16:13:42;2.92;;;2.60;;
16510;SDS011;8368;48.772;8.754;2022-10-16T16:16:08;6.03;;;2.72;;
16510;SDS011;8368;48.772;8.754;2022-10-16T16:18:36;4.03;;;2.80;;
16510;SDS011;8368;48.772;8.754;2022-10-16T16:21:02;2.97;;;2.72;;
16510;SDS011;8368;48.772;8.754;2022-10-16T16:23:28;5.78;;;3.10;;
16510;SDS011;8368;48.772;8.754;2022-10-16T16:26:11;5.90;;;2.97;;
16510;SDS011;8368;48.772;8.754;2022-10-16T16:28:50;8.60;;;3.20;;
16510;SDS011;8368;48.772;8.754;2022-10-16T16:31:16;3.20;;;3.03;;
16510;SDS011;8368;48.772;8.754;2022-10-16T16:33:42;3.95;;;3.13;;
16510;SDS011;8368;48.772;8.754;2022-10-16T16:36:07;3.72;;;2.90;;
16510;SDS011;8368;48.772;8.754;2022-10-16T16:38:34;3.50;;;3.13;;
16510;SDS011;8368;48.772;8.754;2022-10-16T16:41:10;3.60;;;3.00;;
16510;SDS011;8368;48.772;8.754;2022-10-16T16:43:40;9.68;;;5.68;;
16510;SDS011;8368;48.772;8.754;2022-10-16T16:46:06;5.90;;;5.30;;
16510;SDS011;8368;48.772;8.754;2022-10-16T16:48:32;9.52;;;7.65;;
16510;SDS011;8368;48.772;8.754;2022-10-16T16:51:04;15.02;;;7.53;;
16510;SDS011;8368;48.772;8.754;2022-10-16T16:53:44;10.45;;;5.70;;
16510;SDS011;8368;48.772;8.754;2022-10-16T16:56:12;5.35;;;4.93;;
16510;SDS011;8368;48.772;8.754;2022-10-16T16:58:38;7.45;;;4.78;;
16510;SDS011;8368;48.772;8.754;2022-10-16T17:01:04;5.60;;;4.50;;
16510;SDS011;8368;48.772;8.754;2022-10-16T17:03:31;7.95;;;5.00;;
16510;SDS011;8368;48.772;8.754;2022-10-16T17:06:00;7.75;;;4.90;;
16510;SDS011;8368;48.772;8.754;2022-10-16T17:08:27;5.63;;;4.80;;
16510;SDS011;8368;48.772;8.754;2022-10-16T17:10:53;7.38;;;5.40;;
16510;SDS011;8368;48.772;8.754;2022-10-16T17:13:23;9.10;;;5.60;;
16510;SDS011;8368;48.772;8.754;2022-10-16T17:15:51;7.05;;;5.30;;